createdAt,value
2024-04-18T00:01:58.354Z,1.30
2024-04-18T00:04:25.805Z,1.30
2024-04-18T00:07:00.288Z,1.40
2024-04-18T00:09:27.361Z,1.30
2024-04-18T00:11:56.861Z,1.30
2024-04-18T00:14:43.952Z,1.30
2024-04-18T00:17:18.342Z,1.30
2024-04-18T00:19:45.365Z,1.30
2024-04-18T00:22:35.213Z,1.30
2024-04-18T00:25:07.303Z,1.30
2024-04-18T00:27:53.214Z,1.40
2024-04-18T00:30:44.312Z,1.40
2024-04-18T00:33:12.826Z,1.50
2024-04-18T00:35:42.138Z,1.40
2024-04-18T00:38:15.536Z,1.40
2024-04-18T00:40:45.664Z,1.30
2024-04-18T00:43:22.220Z,1.30
2024-04-18T00:45:57.743Z,1.20
2024-04-18T00:48:27.219Z,1.30
2024-04-18T00:51:01.754Z,1.30
2024-04-18T00:53:29.723Z,1.20
2024-04-18T00:56:18.607Z,1.20
2024-04-18T00:58:52.093Z,1.20
2024-04-18T01:01:19.323Z,1.20
2024-04-18T01:03:58.120Z,1.20
2024-04-18T01:06:55.167Z,1.20
2024-04-18T01:09:22.514Z,1.20
2024-04-18T01:12:08.179Z,1.20
2024-04-18T01:14:36.279Z,1.20
2024-04-18T01:17:05.485Z,1.20
2024-04-18T01:19:32.873Z,1.20
2024-04-18T01:22:04.015Z,1.30
2024-04-18T01:24:33.355Z,1.20
2024-04-18T01:27:00.757Z,1.20
2024-04-18T01:29:44.636Z,1.20
2024-04-18T01:32:42.089Z,1.20
2024-04-18T01:35:09.719Z,1.20
2024-04-18T01:37:50.932Z,1.30
2024-04-18T01:40:18.774Z,1.30
2024-04-18T01:43:07.940Z,1.30
2024-04-18T01:45:35.299Z,1.30
2024-04-18T01:48:14.608Z,1.40
2024-04-18T01:51:05.151Z,1.30
2024-04-18T01:53:32.538Z,1.30
2024-04-18T01:55:59.641Z,1.30
2024-04-18T01:58:47.037Z,1.10
2024-04-18T02:01:14.312Z,1.10
2024-04-18T02:03:42.428Z,1.00
2024-04-18T02:06:15.756Z,1.10
2024-04-18T02:08:50.702Z,1.00
2024-04-18T02:11:18.050Z,1.10
2024-04-18T02:14:05.252Z,1.10
2024-04-18T02:16:32.430Z,1.20
2024-04-18T02:19:18.350Z,1.20
2024-04-18T02:22:04.841Z,1.20
2024-04-18T02:24:42.602Z,1.10
2024-04-18T02:27:09.657Z,1.20
2024-04-18T02:29:38.018Z,1.20
2024-04-18T02:32:05.601Z,1.10
2024-04-18T02:34:32.619Z,1.20
2024-04-18T02:37:23.127Z,1.10
2024-04-18T02:39:52.124Z,1.10
2024-04-18T02:42:26.233Z,1.10
2024-04-18T02:45:01.189Z,1.10
2024-04-18T02:47:30.797Z,1.20
2024-04-18T02:50:05.215Z,1.20
2024-04-18T02:52:34.796Z,1.20
2024-04-18T02:55:15.819Z,1.20
2024-04-18T02:57:55.647Z,1.30
2024-04-18T03:00:22.736Z,1.20
2024-04-18T03:03:08.585Z,1.10
2024-04-18T03:06:05.540Z,1.00
2024-04-18T03:08:33.542Z,0.90
2024-04-18T03:11:16.268Z,0.80
2024-04-18T03:14:04.246Z,0.80
2024-04-18T03:16:32.329Z,0.90
2024-04-18T03:19:18.503Z,0.90
2024-04-18T03:21:55.578Z,0.90
2024-04-18T03:24:24.736Z,0.90
2024-04-18T03:26:53.982Z,0.90
2024-04-18T03:29:21.458Z,1.00
2024-04-18T03:31:57.788Z,1.10
2024-04-18T03:34:43.318Z,1.10
2024-04-18T03:37:10.332Z,1.20
2024-04-18T03:39:38.960Z,1.30
2024-04-18T03:42:06.186Z,1.30
2024-04-18T03:44:52.694Z,1.40
2024-04-18T03:47:19.713Z,1.30
2024-04-18T03:50:17.560Z,1.30
2024-04-18T03:52:44.800Z,1.40
2024-04-18T03:55:32.046Z,1.40
2024-04-18T03:57:59.085Z,1.40
2024-04-18T04:00:44.986Z,1.40
2024-04-18T04:03:13.111Z,1.50
2024-04-18T04:05:40.536Z,1.40
2024-04-18T04:08:07.560Z,1.30
2024-04-18T04:10:40.437Z,1.30
2024-04-18T04:13:07.411Z,1.30
2024-04-18T04:15:52.591Z,1.40
2024-04-18T04:18:38.533Z,1.40
2024-04-18T04:21:38.205Z,1.40
2024-04-18T04:24:05.848Z,1.50
2024-04-18T04:26:54.158Z,1.40
2024-04-18T04:29:21.604Z,1.50
2024-04-18T04:31:49.368Z,1.50
2024-04-18T04:34:16.427Z,1.50
2024-04-18T04:36:43.615Z,1.50
2024-04-18T04:39:10.930Z,1.50
2024-04-18T04:41:44.094Z,1.50
2024-04-18T04:44:11.074Z,1.50
2024-04-18T04:46:52.423Z,1.50
2024-04-18T04:49:20.709Z,1.40
2024-04-18T04:52:06.758Z,1.40
2024-04-18T04:54:47.913Z,1.40
2024-04-18T04:57:15.477Z,1.50
2024-04-18T04:59:44.125Z,1.40
2024-04-18T05:02:11.328Z,1.50
2024-04-18T05:04:54.886Z,1.50
2024-04-18T05:07:34.087Z,1.60
2024-04-18T05:10:24.310Z,1.50
2024-04-18T05:12:51.726Z,1.60
2024-04-18T05:15:35.887Z,1.50
2024-04-18T05:18:03.291Z,1.50
2024-04-18T05:20:33.047Z,1.60
2024-04-18T05:23:00.206Z,1.60
2024-04-18T05:25:29.341Z,1.60
2024-04-18T05:28:21.625Z,1.60
2024-04-18T05:31:03.366Z,1.60
2024-04-18T05:33:32.783Z,1.60
2024-04-18T05:36:00.592Z,1.70
2024-04-18T05:38:27.656Z,1.80
2024-04-18T05:40:54.914Z,1.80
2024-04-18T05:43:41.889Z,1.70
2024-04-18T05:46:09.096Z,1.70
2024-04-18T05:48:37.469Z,1.70
2024-04-18T05:51:04.640Z,1.70
2024-04-18T05:53:31.628Z,1.60
2024-04-18T05:55:59.783Z,1.60
2024-04-18T05:58:27.333Z,1.60
2024-04-18T06:00:56.324Z,1.60
2024-04-18T06:03:26.265Z,1.70
2024-04-18T06:05:54.614Z,1.70
2024-04-18T06:08:21.597Z,1.70
2024-04-18T06:10:51.127Z,1.80
2024-04-18T06:13:25.783Z,1.90
2024-04-18T06:15:53.247Z,1.90
2024-04-18T06:18:20.866Z,2.00
2024-04-18T06:20:51.570Z,2.10
2024-04-18T06:23:18.974Z,2.20
2024-04-18T06:26:05.938Z,2.20
2024-04-18T06:28:33.403Z,2.20
2024-04-18T06:31:00.511Z,2.30
2024-04-18T06:33:33.237Z,2.40
2024-04-18T06:36:00.642Z,2.40
2024-04-18T06:38:27.913Z,2.50
2024-04-18T06:40:55.052Z,2.70
2024-04-18T06:43:41.581Z,2.90
2024-04-18T06:46:09.655Z,2.90
2024-04-18T06:48:37.003Z,3.00
2024-04-18T06:51:04.342Z,3.10
2024-04-18T06:53:31.389Z,3.20
2024-04-18T06:55:58.627Z,3.30
2024-04-18T06:58:26.095Z,3.40
2024-04-18T07:00:53.492Z,3.50
2024-04-18T07:03:21.053Z,3.50
2024-04-18T07:05:51.340Z,3.40
2024-04-18T07:08:21.212Z,3.30
2024-04-18T07:10:48.592Z,3.30
2024-04-18T07:13:34.190Z,3.40
2024-04-18T07:16:23.073Z,3.40
2024-04-18T07:18:53.273Z,3.30
2024-04-18T07:21:20.477Z,3.30
2024-04-18T07:23:47.753Z,3.40
2024-04-18T07:26:35.538Z,3.50
2024-04-18T07:29:04.772Z,3.30
2024-04-18T07:31:32.027Z,3.30
2024-04-18T07:34:17.647Z,3.40
2024-04-18T07:36:48.923Z,3.50
2024-04-18T07:39:16.316Z,3.40
2024-04-18T07:41:43.318Z,3.30
2024-04-18T07:44:13.530Z,3.30
2024-04-18T07:46:41.246Z,3.30
2024-04-18T07:49:09.804Z,3.30
2024-04-18T07:51:39.245Z,3.30
2024-04-18T07:54:06.546Z,3.30
2024-04-18T07:56:34.149Z,3.40
2024-04-18T07:59:02.331Z,3.50
2024-04-18T08:01:32.262Z,3.60
2024-04-18T08:04:18.184Z,3.70
2024-04-18T08:06:49.682Z,3.70
2024-04-18T08:09:21.954Z,3.50
2024-04-18T08:14:35.227Z,3.50
2024-04-18T08:17:05.033Z,3.50
2024-04-18T08:19:35.096Z,3.50
2024-04-18T08:22:04.572Z,3.70
2024-04-18T08:24:35.278Z,4.00
2024-04-18T08:27:08.850Z,4.20
2024-04-18T08:29:36.126Z,4.50
2024-04-18T08:32:03.244Z,4.60
2024-04-18T08:34:32.834Z,4.90
2024-04-18T08:37:01.335Z,5.00
2024-04-18T08:39:29.386Z,4.80
2024-04-18T08:42:00.136Z,4.60
2024-04-18T08:44:27.394Z,4.30
2024-04-18T08:46:55.028Z,4.10
2024-04-18T08:49:27.905Z,4.20
2024-04-18T08:51:55.753Z,4.30
2024-04-18T08:54:24.289Z,4.40
2024-04-18T08:56:53.062Z,4.70
2024-04-18T08:59:21.559Z,4.80
2024-04-18T09:01:50.178Z,4.90
2024-04-18T09:04:17.265Z,5.10
2024-04-18T09:06:44.665Z,5.40
2024-04-18T09:09:19.739Z,5.70
2024-04-18T09:11:48.363Z,5.70
2024-04-18T09:14:15.853Z,5.60
2024-04-18T09:16:45.366Z,5.60
2024-04-18T09:19:13.812Z,5.70
2024-04-18T09:21:42.080Z,6.20
2024-04-18T09:24:09.203Z,6.60
2024-04-18T09:26:36.218Z,6.90
2024-04-18T09:29:03.297Z,6.80
2024-04-18T09:31:37.983Z,6.80
2024-04-18T09:34:14.812Z,6.50
2024-04-18T09:36:42.622Z,6.30
2024-04-18T09:39:24.799Z,5.70
2024-04-18T09:42:08.158Z,5.00
2024-04-18T09:44:43.069Z,4.70
2024-04-18T09:47:11.353Z,4.60
2024-04-18T09:49:39.587Z,4.60
2024-04-18T09:52:08.224Z,4.80
2024-04-18T09:54:38.172Z,5.40
2024-04-18T09:57:06.806Z,5.90
2024-04-18T09:59:34.785Z,6.60
2024-04-18T10:02:02.295Z,7.20
2024-04-18T10:04:30.490Z,7.10
2024-04-18T10:07:00.401Z,6.60
2024-04-18T10:09:28.275Z,5.90
2024-04-18T10:11:55.644Z,5.50
2024-04-18T10:14:22.801Z,5.20
2024-04-18T10:16:51.212Z,5.10
2024-04-18T10:19:22.966Z,5.10
2024-04-18T10:22:10.819Z,5.20
2024-04-18T10:24:43.386Z,5.50
2024-04-18T10:27:15.692Z,5.80
2024-04-18T10:29:55.207Z,6.20
2024-04-18T10:32:23.303Z,6.60
2024-04-18T10:34:54.299Z,6.80
2024-04-18T10:37:22.560Z,6.30
2024-04-18T10:39:50.486Z,6.00
2024-04-18T10:42:21.863Z,5.90
2024-04-18T10:44:49.800Z,5.90
2024-04-18T10:47:21.749Z,6.00
2024-04-18T10:49:50.317Z,6.00
2024-04-18T10:52:21.861Z,6.10
2024-04-18T10:54:48.898Z,6.30
2024-04-18T10:57:16.213Z,6.30
2024-04-18T10:59:48.750Z,6.30
2024-04-18T11:02:16.299Z,6.20
2024-04-18T11:04:43.500Z,6.10
2024-04-18T11:07:12.292Z,5.80
2024-04-18T11:09:41.195Z,5.40
2024-04-18T11:12:09.402Z,5.30
2024-04-18T11:14:36.911Z,5.30
2024-04-18T11:17:08.515Z,5.30
2024-04-18T11:19:36.905Z,5.40
2024-04-18T11:22:04.699Z,5.50
2024-04-18T11:24:32.372Z,6.10
2024-04-18T11:27:04.220Z,6.50
2024-04-18T11:29:33.156Z,6.70
2024-04-18T11:32:11.473Z,7.10
2024-04-18T11:34:39.886Z,7.60
2024-04-18T11:37:09.258Z,8.00
2024-04-18T11:39:36.691Z,8.60
2024-04-18T11:42:06.896Z,8.90
2024-04-18T11:44:34.380Z,8.30
2024-04-18T11:47:02.015Z,7.90
2024-04-18T11:49:30.650Z,7.50
2024-04-18T11:51:58.162Z,7.10
2024-04-18T11:54:25.942Z,6.70
2024-04-18T11:56:55.227Z,6.40
2024-04-18T11:59:33.079Z,6.70
2024-04-18T12:02:00.438Z,7.10
2024-04-18T12:04:27.741Z,7.20
2024-04-18T12:06:55.502Z,7.50
2024-04-18T12:09:29.849Z,8.10
2024-04-18T12:12:00.374Z,8.50
2024-04-18T12:14:48.959Z,8.70
2024-04-18T12:17:31.676Z,8.10
2024-04-18T12:20:18.151Z,7.90
2024-04-18T12:22:46.949Z,7.90
2024-04-18T12:25:16.645Z,7.70
2024-04-18T12:27:44.525Z,7.50
2024-04-18T12:30:31.587Z,7.30
2024-04-18T12:33:17.313Z,7.10
2024-04-18T12:35:44.996Z,6.70
2024-04-18T12:38:13.956Z,6.40
2024-04-18T12:40:45.977Z,6.30
2024-04-18T12:43:19.471Z,6.30
2024-04-18T12:46:06.771Z,6.20
2024-04-18T12:48:51.902Z,6.30
2024-04-18T12:51:19.277Z,6.50
2024-04-18T12:53:46.655Z,6.40
2024-04-18T12:56:14.016Z,6.20
2024-04-18T12:58:44.061Z,6.00
2024-04-18T13:01:13.080Z,6.00
2024-04-18T13:03:43.638Z,6.00
2024-04-18T13:06:29.843Z,5.90
2024-04-18T13:08:58.436Z,6.00
2024-04-18T13:11:46.307Z,6.30
2024-04-18T13:14:14.669Z,6.60
2024-04-18T13:16:41.879Z,6.90
2024-04-18T13:19:13.144Z,7.00
2024-04-18T13:21:40.626Z,7.10
2024-04-18T13:24:12.465Z,7.30
2024-04-18T13:26:52.884Z,7.60
2024-04-18T13:29:20.992Z,7.60
2024-04-18T13:31:49.238Z,7.60
2024-04-18T13:34:19.963Z,7.40
2024-04-18T13:36:48.547Z,7.50
2024-04-18T13:39:15.921Z,7.80
2024-04-18T13:42:03.198Z,8.10
2024-04-18T13:44:51.586Z,8.30
2024-04-18T13:47:44.963Z,8.50
2024-04-18T13:50:12.141Z,8.10
2024-04-18T13:52:42.299Z,7.90
2024-04-18T13:55:09.784Z,7.70
2024-04-18T13:57:36.995Z,7.90
2024-04-18T14:00:19.680Z,8.00
2024-04-18T14:03:09.567Z,8.50
2024-04-18T14:05:58.816Z,9.00
2024-04-18T14:08:40.254Z,9.70
2024-04-18T14:11:27.753Z,9.90
2024-04-18T14:14:11.491Z,10.20
2024-04-18T14:17:17.567Z,11.40
2024-04-18T14:20:02.764Z,11.30
2024-04-18T14:22:29.837Z,10.80
2024-04-18T14:24:56.890Z,10.70
2024-04-18T14:27:33.507Z,10.40
2024-04-18T14:30:02.272Z,10.20
2024-04-18T14:32:35.478Z,9.70
2024-04-18T14:35:02.680Z,9.10
2024-04-18T14:37:33.004Z,8.50
2024-04-18T14:40:01.562Z,8.20
2024-04-18T14:42:28.743Z,7.80
2024-04-18T14:44:57.219Z,7.60
2024-04-18T14:47:25.164Z,7.20
2024-04-18T14:50:04.419Z,6.90
2024-04-18T14:52:37.839Z,6.90
2024-04-18T14:55:29.183Z,7.00
2024-04-18T14:58:03.071Z,7.40
2024-04-18T15:00:50.651Z,7.70
2024-04-18T15:03:17.980Z,7.60
2024-04-18T15:05:55.427Z,7.50
2024-04-18T15:08:48.611Z,7.20
2024-04-18T15:11:28.123Z,7.00
2024-04-18T15:14:05.983Z,6.80
2024-04-18T15:16:36.031Z,6.80
2024-04-18T15:19:07.482Z,6.80
2024-04-18T15:21:54.405Z,7.00
2024-04-18T15:24:23.572Z,7.90
2024-04-18T15:27:02.519Z,9.10
2024-04-18T15:29:30.527Z,10.30
2024-04-18T15:32:16.958Z,10.80
2024-04-18T15:34:48.042Z,11.00
2024-04-18T15:37:37.236Z,11.10
2024-04-18T15:40:11.518Z,10.80
2024-04-18T15:42:59.554Z,10.20
2024-04-18T15:45:29.700Z,10.10
2024-04-18T15:48:16.884Z,10.20
2024-04-18T15:50:54.253Z,10.00
2024-04-18T15:53:31.692Z,9.60
2024-04-18T15:56:08.714Z,9.60
2024-04-18T15:58:54.779Z,9.20
2024-04-18T16:01:25.546Z,9.10
2024-04-18T16:04:11.399Z,9.20
2024-04-18T16:06:57.398Z,9.00
2024-04-18T16:09:42.977Z,8.80
2024-04-18T16:12:22.426Z,9.00
2024-04-18T16:15:06.711Z,9.20
2024-04-18T16:17:34.700Z,9.00
2024-04-18T16:20:12.846Z,9.00
2024-04-18T16:22:40.201Z,9.10
2024-04-18T16:25:26.190Z,8.90
2024-04-18T16:27:53.268Z,8.40
2024-04-18T16:30:25.561Z,8.20
2024-04-18T16:32:52.734Z,8.20
2024-04-18T16:35:20.112Z,8.00
2024-04-18T16:38:07.062Z,7.70
2024-04-18T16:40:53.619Z,7.30
2024-04-18T16:43:37.137Z,6.90
2024-04-18T16:46:05.855Z,6.70
2024-04-18T16:48:33.118Z,6.70
2024-04-18T16:51:01.656Z,7.40
2024-04-18T16:53:53.856Z,7.50
2024-04-18T16:56:23.119Z,7.30
2024-04-18T16:58:54.259Z,7.00
2024-04-18T17:01:22.410Z,6.80
2024-04-18T17:03:50.791Z,6.60
2024-04-18T17:06:38.791Z,6.50
2024-04-18T17:09:13.318Z,6.40
2024-04-18T17:11:40.783Z,6.20
2024-04-18T17:14:38.730Z,6.10
2024-04-18T17:17:05.896Z,6.00
2024-04-18T17:19:54.164Z,6.10
2024-04-18T17:22:21.363Z,6.10
2024-04-18T17:24:50.353Z,6.20
2024-04-18T17:27:18.787Z,6.20
2024-04-18T17:29:47.304Z,6.20
2024-04-18T17:32:14.340Z,6.20
2024-04-18T17:34:41.895Z,6.10
2024-04-18T17:37:10.108Z,6.00
2024-04-18T17:39:53.492Z,5.90
2024-04-18T17:42:21.590Z,5.80
2024-04-18T17:44:54.773Z,5.80
2024-04-18T17:47:29.604Z,5.70
2024-04-18T17:49:59.124Z,5.70
2024-04-18T17:52:26.122Z,5.70
2024-04-18T17:54:56.140Z,5.60
2024-04-18T17:57:26.236Z,5.60
2024-04-18T18:00:14.401Z,5.50
2024-04-18T18:02:41.846Z,5.40
2024-04-18T18:05:09.998Z,5.30
2024-04-18T18:07:39.056Z,5.30
2024-04-18T18:10:09.009Z,5.20
2024-04-18T18:12:36.239Z,5.10
2024-04-18T18:15:04.254Z,5.00
2024-04-18T18:17:35.752Z,4.90
2024-04-18T18:20:04.250Z,4.80
2024-04-18T18:22:47.646Z,4.70
2024-04-18T18:25:17.095Z,4.60
2024-04-18T18:27:45.031Z,4.60
2024-04-18T18:30:31.400Z,4.50
2024-04-18T18:33:19.243Z,4.40
2024-04-18T18:35:47.350Z,4.30
2024-04-18T18:38:15.717Z,4.20
2024-04-18T18:40:42.729Z,4.10
2024-04-18T18:43:23.302Z,4.00
2024-04-18T18:45:52.335Z,3.90
2024-04-18T18:48:27.772Z,4.00
2024-04-18T18:51:06.148Z,3.80
2024-04-18T18:53:34.598Z,3.80
2024-04-18T18:56:01.958Z,3.80
2024-04-18T18:58:50.670Z,3.70
2024-04-18T19:01:17.776Z,3.60
2024-04-18T19:03:47.654Z,3.50
2024-04-18T19:06:24.347Z,3.50
2024-04-18T19:08:51.611Z,3.50
2024-04-18T19:11:36.609Z,3.40
2024-04-18T19:14:04.134Z,3.30
2024-04-18T19:16:31.133Z,3.20
2024-04-18T19:18:59.653Z,3.10
2024-04-18T19:21:26.706Z,3.10
2024-04-18T19:23:53.743Z,3.00
2024-04-18T19:26:23.528Z,3.10
2024-04-18T19:28:53.621Z,3.10
2024-04-18T19:31:24.520Z,3.20
2024-04-18T19:33:55.140Z,3.10
2024-04-18T19:36:23.677Z,3.20
2024-04-18T19:38:50.792Z,3.20
2024-04-18T19:41:26.876Z,3.20
2024-04-18T19:43:54.768Z,3.30
2024-04-18T19:46:23.364Z,3.20
2024-04-18T19:49:10.449Z,3.20
2024-04-18T19:52:02.564Z,3.20
2024-04-18T19:54:31.846Z,3.30
2024-04-18T19:57:00.439Z,3.30
2024-04-18T19:59:28.091Z,3.30
2024-04-18T20:01:55.234Z,3.40
2024-04-18T20:04:22.494Z,3.30
2024-04-18T20:06:49.998Z,3.30
2024-04-18T20:09:17.534Z,3.40
2024-04-18T20:11:44.983Z,3.40
2024-04-18T20:14:20.180Z,3.40
2024-04-18T20:16:47.275Z,3.30
2024-04-18T20:19:16.296Z,3.40
2024-04-18T20:21:44.773Z,3.40
2024-04-18T20:24:13.764Z,3.50
2024-04-18T20:26:59.527Z,3.40
2024-04-18T20:29:45.357Z,3.50
2024-04-18T20:32:30.951Z,3.60
2024-04-18T20:34:59.612Z,3.60
2024-04-18T20:37:28.364Z,3.50
2024-04-18T20:39:58.660Z,3.50
2024-04-18T20:42:27.326Z,3.60
2024-04-18T20:45:03.365Z,3.60
2024-04-18T20:47:32.638Z,3.60
2024-04-18T20:50:00.270Z,3.60
2024-04-18T20:52:27.558Z,3.70
2024-04-18T20:54:54.849Z,3.70
2024-04-18T20:57:25.194Z,3.70
2024-04-18T20:59:54.154Z,3.60
2024-04-18T21:02:21.899Z,3.60
2024-04-18T21:04:49.183Z,3.60
2024-04-18T21:07:16.431Z,3.60
2024-04-18T21:09:43.671Z,3.60
2024-04-18T21:12:10.960Z,3.60
2024-04-18T21:14:39.806Z,3.60
2024-04-18T21:17:08.336Z,3.60
2024-04-18T21:19:35.915Z,3.60
2024-04-18T21:22:03.936Z,3.60
2024-04-18T21:24:31.171Z,3.60
2024-04-18T21:26:58.473Z,3.70
2024-04-18T21:29:25.663Z,3.70
2024-04-18T21:31:52.888Z,3.80
2024-04-18T21:34:20.513Z,3.90
2024-04-18T21:36:47.784Z,3.80
2024-04-18T21:39:15.435Z,3.80
2024-04-18T21:41:43.133Z,3.80
2024-04-18T21:44:11.082Z,3.70
2024-04-18T21:46:38.651Z,3.70
2024-04-18T21:49:05.848Z,3.80
2024-04-18T21:51:33.188Z,3.80
2024-04-18T21:54:01.762Z,3.80
2024-04-18T21:56:30.041Z,3.80
2024-04-18T21:58:58.906Z,3.80
2024-04-18T22:01:38.569Z,3.70
2024-04-18T22:04:05.863Z,3.70
2024-04-18T22:06:34.745Z,3.70
2024-04-18T22:09:02.196Z,3.70
2024-04-18T22:11:29.453Z,3.70
2024-04-18T22:13:58.194Z,3.70
2024-04-18T22:16:25.372Z,3.60
2024-04-18T22:18:53.228Z,3.60
2024-04-18T22:21:40.704Z,3.60
2024-04-18T22:24:08.966Z,3.60
2024-04-18T22:26:37.784Z,3.60
2024-04-18T22:29:05.627Z,3.60
2024-04-18T22:31:32.834Z,3.60
2024-04-18T22:34:00.602Z,3.60
2024-04-18T22:36:28.219Z,3.60
2024-04-18T22:38:58.265Z,3.60
2024-04-18T22:41:27.543Z,3.60
2024-04-18T22:43:55.224Z,3.60
2024-04-18T22:46:22.420Z,3.60
2024-04-18T22:48:50.269Z,3.60
2024-04-18T22:51:17.494Z,3.60
2024-04-18T22:53:45.026Z,3.60
2024-04-18T22:56:13.254Z,3.60
2024-04-18T22:58:40.409Z,3.60
2024-04-18T23:01:07.808Z,3.60
2024-04-18T23:03:36.696Z,3.60
2024-04-18T23:06:15.021Z,3.60
2024-04-18T23:08:43.382Z,3.60
2024-04-18T23:11:10.809Z,3.60
2024-04-18T23:13:38.339Z,3.60
2024-04-18T23:16:06.262Z,3.60
2024-04-18T23:18:33.641Z,3.50
2024-04-18T23:21:01.042Z,3.50
2024-04-18T23:23:34.868Z,3.50
2024-04-18T23:26:03.514Z,3.60
2024-04-18T23:28:30.707Z,3.50
2024-04-18T23:30:58.970Z,3.50
2024-04-18T23:33:26.220Z,3.50
2024-04-18T23:35:54.224Z,3.50
2024-04-18T23:38:22.394Z,3.50
2024-04-18T23:40:49.996Z,3.50
2024-04-18T23:43:17.250Z,3.50
2024-04-18T23:45:44.363Z,3.40
2024-04-18T23:48:13.311Z,3.40
2024-04-18T23:50:40.831Z,3.40
2024-04-18T23:53:08.135Z,3.40
2024-04-18T23:55:35.363Z,3.40
2024-04-18T23:58:02.660Z,3.40
